createdAt,value
2023-08-02T00:00:36.214Z,70.57
2023-08-02T00:01:38.465Z,70.67
2023-08-02T00:02:41.061Z,70.59
2023-08-02T00:03:51.373Z,70.56
2023-08-02T00:05:00.247Z,71.03
2023-08-02T00:06:02.985Z,70.95
2023-08-02T00:07:06.140Z,71.05
2023-08-02T00:08:08.368Z,70.84
2023-08-02T00:09:10.868Z,70.88
2023-08-02T00:10:14.242Z,70.98
2023-08-02T00:11:19.707Z,71.34
2023-08-02T00:12:22.041Z,71.32
2023-08-02T00:13:24.436Z,71.00
2023-08-02T00:14:26.936Z,70.90
2023-08-02T00:15:29.153Z,71.00
2023-08-02T00:16:31.905Z,71.15
2023-08-02T00:17:34.474Z,71.35
2023-08-02T00:18:37.409Z,71.23
2023-08-02T00:19:39.819Z,71.73
2023-08-02T00:20:42.240Z,71.39
2023-08-02T00:21:45.203Z,71.24
2023-08-02T00:22:47.421Z,71.33
2023-08-02T00:23:49.664Z,71.35
2023-08-02T00:24:52.075Z,71.18
2023-08-02T00:25:54.640Z,71.62
2023-08-02T00:26:57.091Z,71.69
2023-08-02T00:27:59.657Z,71.94
2023-08-02T00:29:03.880Z,71.87
2023-08-02T00:30:06.730Z,71.79
2023-08-02T00:31:09.471Z,71.52
2023-08-02T00:32:11.949Z,71.55
2023-08-02T00:33:14.413Z,71.55
2023-08-02T00:34:17.919Z,71.72
2023-08-02T00:35:20.350Z,71.69
2023-08-02T00:36:22.727Z,71.33
2023-08-02T00:37:25.269Z,71.08
2023-08-02T00:38:27.634Z,71.34
2023-08-02T00:39:30.041Z,71.92
2023-08-02T00:40:32.445Z,71.62
2023-08-02T00:41:34.683Z,71.58
2023-08-02T00:42:37.155Z,71.75
2023-08-02T00:43:43.240Z,71.62
2023-08-02T00:44:46.154Z,71.64
2023-08-02T00:45:48.701Z,71.76
2023-08-02T00:46:51.318Z,71.66
2023-08-02T00:47:53.777Z,71.47
2023-08-02T00:48:56.214Z,71.71
2023-08-02T00:49:58.945Z,71.71
2023-08-02T00:51:02.888Z,71.82
2023-08-02T00:52:06.260Z,71.94
2023-08-02T00:53:08.590Z,72.24
2023-08-02T00:54:11.099Z,72.51
2023-08-02T00:55:13.368Z,72.37
2023-08-02T00:56:16.411Z,72.25
2023-08-02T00:57:18.848Z,72.32
2023-08-02T00:58:21.093Z,72.23
2023-08-02T00:59:23.284Z,72.50
2023-08-02T01:00:25.866Z,72.53
2023-08-02T01:01:28.179Z,72.62
2023-08-02T01:02:30.878Z,72.91
2023-08-02T01:03:33.467Z,73.08
2023-08-02T01:04:37.503Z,73.00
2023-08-02T01:05:44.977Z,73.05
2023-08-02T01:07:08.679Z,73.10
2023-08-02T01:08:20.717Z,73.01
2023-08-02T01:09:27.683Z,73.09
2023-08-02T01:10:53.467Z,72.70
2023-08-02T01:12:01.573Z,73.00
2023-08-02T01:13:05.441Z,73.18
2023-08-02T01:14:10.758Z,73.32
2023-08-02T01:15:15.692Z,73.08
2023-08-02T01:16:20.300Z,72.76
2023-08-02T01:17:26.678Z,72.86
2023-08-02T01:18:31.328Z,72.96
2023-08-02T01:19:34.340Z,72.95
2023-08-02T01:20:36.692Z,73.05
2023-08-02T01:21:40.148Z,73.43
2023-08-02T01:22:42.367Z,73.63
2023-08-02T01:23:45.371Z,73.42
2023-08-02T01:24:47.766Z,73.07
2023-08-02T01:25:52.405Z,73.23
2023-08-02T01:26:55.797Z,73.02
2023-08-02T01:28:06.037Z,73.16
2023-08-02T01:29:11.189Z,73.23
2023-08-02T01:30:17.646Z,73.21
2023-08-02T01:31:22.548Z,73.44
2023-08-02T01:32:25.157Z,73.26
2023-08-02T01:33:28.648Z,73.11
2023-08-02T01:34:31.795Z,73.07
2023-08-02T01:35:35.525Z,73.11
2023-08-02T01:36:39.110Z,73.01
2023-08-02T01:37:43.551Z,72.94
2023-08-02T01:38:46.168Z,72.84
2023-08-02T01:39:48.377Z,72.67
2023-08-02T01:40:51.134Z,72.32
2023-08-02T01:41:53.576Z,72.79
2023-08-02T01:42:55.818Z,72.76
2023-08-02T01:43:58.391Z,72.86
2023-08-02T01:45:00.649Z,72.68
2023-08-02T01:46:03.157Z,72.41
2023-08-02T01:47:05.440Z,72.33
2023-08-02T01:48:07.914Z,72.52
2023-08-02T01:49:10.337Z,72.10
2023-08-02T01:50:12.543Z,72.42
2023-08-02T01:51:15.233Z,72.36
2023-08-02T01:52:17.441Z,72.58
2023-08-02T01:53:19.863Z,72.87
2023-08-02T01:54:22.290Z,72.77
2023-08-02T01:55:24.505Z,72.64
2023-08-02T01:56:26.998Z,72.66
2023-08-02T01:57:29.205Z,72.78
2023-08-02T01:58:31.992Z,72.67
2023-08-02T01:59:34.236Z,72.80
2023-08-02T02:00:36.889Z,72.42
2023-08-02T02:01:39.963Z,72.87
2023-08-02T02:02:42.567Z,72.56
2023-08-02T02:03:45.143Z,72.19
2023-08-02T02:04:47.452Z,72.33
2023-08-02T02:05:56.012Z,72.43
2023-08-02T02:06:58.275Z,72.63
2023-08-02T02:08:00.696Z,72.34
2023-08-02T02:09:03.162Z,72.39
2023-08-02T02:10:05.786Z,72.48
2023-08-02T02:11:08.909Z,71.95
2023-08-02T02:12:11.190Z,72.29
2023-08-02T02:13:13.768Z,72.26
2023-08-02T02:14:16.267Z,72.32
2023-08-02T02:15:18.627Z,72.35
2023-08-02T02:16:20.887Z,72.11
2023-08-02T02:17:23.440Z,72.27
2023-08-02T02:18:25.890Z,72.03
2023-08-02T02:19:28.326Z,71.70
2023-08-02T02:20:30.601Z,71.92
2023-08-02T02:21:37.047Z,72.21
2023-08-02T02:22:39.755Z,72.45
2023-08-02T02:23:45.516Z,72.08
2023-08-02T02:24:47.807Z,71.96
2023-08-02T02:25:50.424Z,72.20
2023-08-02T02:26:55.899Z,72.45
2023-08-02T02:27:58.329Z,72.40
2023-08-02T02:29:02.771Z,72.22
2023-08-02T02:30:05.879Z,72.09
2023-08-02T02:31:08.404Z,72.42
2023-08-02T02:32:10.753Z,72.25
2023-08-02T02:33:13.223Z,72.55
2023-08-02T02:34:15.746Z,72.46
2023-08-02T02:35:17.975Z,72.17
2023-08-02T02:36:20.371Z,71.92
2023-08-02T02:37:22.706Z,72.16
2023-08-02T02:38:26.705Z,72.41
2023-08-02T02:39:29.141Z,72.25
2023-08-02T02:40:31.416Z,72.50
2023-08-02T02:41:33.652Z,72.13
2023-08-02T02:42:39.401Z,72.38
2023-08-02T02:43:42.024Z,72.19
2023-08-02T02:44:45.508Z,72.38
2023-08-02T02:45:47.786Z,72.11
2023-08-02T02:46:51.199Z,72.38
2023-08-02T02:47:53.854Z,72.41
2023-08-02T02:48:56.438Z,72.20
2023-08-02T02:49:58.639Z,72.91
2023-08-02T02:51:01.669Z,72.72
2023-08-02T02:52:04.458Z,72.46
2023-08-02T02:53:06.669Z,72.63
2023-08-02T02:54:09.263Z,73.05
2023-08-02T02:55:11.592Z,72.55
2023-08-02T02:56:14.156Z,72.47
2023-08-02T02:57:17.698Z,72.73
2023-08-02T02:58:19.937Z,73.17
2023-08-02T02:59:22.572Z,72.86
2023-08-02T03:00:24.787Z,72.89
2023-08-02T03:01:27.187Z,72.83
2023-08-02T03:02:30.108Z,72.76
2023-08-02T03:03:32.637Z,72.60
2023-08-02T03:04:36.422Z,72.09
2023-08-02T03:05:40.068Z,71.96
2023-08-02T03:06:42.558Z,72.20
2023-08-02T03:07:45.721Z,72.34
2023-08-02T03:08:47.944Z,72.26
2023-08-02T03:09:50.650Z,72.50
2023-08-02T03:10:52.949Z,72.52
2023-08-02T03:11:55.163Z,72.47
2023-08-02T03:12:57.567Z,72.38
2023-08-02T03:14:00.011Z,72.44
2023-08-02T03:15:02.451Z,72.53
2023-08-02T03:16:04.884Z,72.76
2023-08-02T03:17:07.205Z,72.90
2023-08-02T03:18:10.278Z,72.77
2023-08-02T03:19:13.623Z,72.95
2023-08-02T03:20:15.886Z,73.05
2023-08-02T03:21:18.430Z,72.74
2023-08-02T03:22:20.824Z,72.97
2023-08-02T03:23:23.086Z,72.82
2023-08-02T03:24:25.553Z,72.94
2023-08-02T03:25:27.783Z,72.96
2023-08-02T03:26:30.095Z,72.85
2023-08-02T03:27:32.540Z,72.87
2023-08-02T03:28:34.758Z,72.88
2023-08-02T03:29:37.765Z,72.70
2023-08-02T03:30:40.070Z,72.46
2023-08-02T03:31:43.680Z,72.29
2023-08-02T03:32:46.209Z,72.53
2023-08-02T03:33:48.607Z,72.53
2023-08-02T03:34:51.127Z,72.40
2023-08-02T03:35:53.368Z,72.28
2023-08-02T03:36:55.668Z,71.96
2023-08-02T03:37:58.094Z,71.79
2023-08-02T03:39:00.284Z,72.27
2023-08-02T03:40:02.872Z,72.01
2023-08-02T03:41:05.200Z,71.78
2023-08-02T03:42:08.075Z,71.50
2023-08-02T03:43:10.827Z,71.63
2023-08-02T03:44:13.251Z,72.03
2023-08-02T03:45:15.478Z,71.93
2023-08-02T03:46:17.707Z,71.96
2023-08-02T03:47:19.975Z,72.09
2023-08-02T03:48:22.417Z,72.06
2023-08-02T03:49:24.905Z,71.89
2023-08-02T03:50:28.251Z,71.58
2023-08-02T03:51:30.526Z,71.43
2023-08-02T03:52:32.739Z,71.75
2023-08-02T03:53:35.212Z,71.74
2023-08-02T03:54:37.696Z,71.69
2023-08-02T03:55:39.923Z,71.58
2023-08-02T03:56:42.571Z,71.64
2023-08-02T03:57:44.982Z,71.50
2023-08-02T03:58:47.457Z,71.62
2023-08-02T03:59:49.938Z,71.55
2023-08-02T04:00:52.697Z,71.51
2023-08-02T04:01:54.957Z,71.59
2023-08-02T04:02:57.325Z,71.39
2023-08-02T04:03:59.851Z,71.25
2023-08-02T04:05:02.618Z,70.88
2023-08-02T04:06:05.302Z,70.95
2023-08-02T04:07:07.577Z,70.94
2023-08-02T04:08:09.987Z,71.24
2023-08-02T04:09:12.219Z,70.74
2023-08-02T04:10:14.628Z,70.82
2023-08-02T04:11:16.898Z,71.22
2023-08-02T04:12:20.671Z,70.86
2023-08-02T04:13:23.084Z,71.04
2023-08-02T04:14:25.290Z,70.75
2023-08-02T04:15:27.706Z,70.83
2023-08-02T04:16:30.032Z,71.22
2023-08-02T04:17:32.505Z,70.71
2023-08-02T04:18:34.774Z,70.94
2023-08-02T04:19:37.085Z,70.47
2023-08-02T04:20:40.346Z,70.41
2023-08-02T04:21:42.546Z,70.27
2023-08-02T04:22:44.992Z,70.61
2023-08-02T04:23:50.338Z,70.64
2023-08-02T04:24:52.992Z,70.62
2023-08-02T04:25:56.842Z,70.74
2023-08-02T04:27:00.453Z,70.21
2023-08-02T04:28:02.845Z,70.27
2023-08-02T04:29:05.086Z,70.03
2023-08-02T04:30:08.199Z,70.05
2023-08-02T04:31:10.553Z,69.96
2023-08-02T04:32:12.988Z,69.83
2023-08-02T04:33:15.270Z,69.83
2023-08-02T04:34:17.510Z,69.98
2023-08-02T04:35:20.099Z,70.03
2023-08-02T04:36:22.658Z,70.13
2023-08-02T04:37:24.887Z,69.85
2023-08-02T04:38:27.972Z,69.94
2023-08-02T04:39:30.229Z,69.96
2023-08-02T04:40:32.816Z,70.38
2023-08-02T04:41:36.198Z,70.27
2023-08-02T04:42:38.628Z,70.19
2023-08-02T04:43:40.998Z,69.93
2023-08-02T04:44:43.257Z,69.99
2023-08-02T04:45:45.721Z,70.05
2023-08-02T04:46:48.174Z,69.87
2023-08-02T04:47:50.499Z,69.61
2023-08-02T04:48:52.771Z,69.42
2023-08-02T04:49:58.480Z,69.11
2023-08-02T04:51:06.962Z,69.30
2023-08-02T04:52:09.428Z,69.45
2023-08-02T04:53:11.742Z,69.50
2023-08-02T04:54:13.958Z,69.47
2023-08-02T04:55:16.503Z,69.84
2023-08-02T04:56:18.904Z,69.70
2023-08-02T04:57:21.440Z,69.68
2023-08-02T04:58:25.058Z,69.38
2023-08-02T04:59:27.263Z,69.45
2023-08-02T05:00:29.668Z,69.32
2023-08-02T05:01:32.397Z,69.50
2023-08-02T05:02:38.032Z,69.00
2023-08-02T05:03:40.290Z,69.43
2023-08-02T05:04:42.512Z,68.95
2023-08-02T05:05:44.739Z,69.14
2023-08-02T05:06:47.118Z,69.43
2023-08-02T05:07:49.555Z,69.27
2023-08-02T05:08:51.778Z,68.96
2023-08-02T05:09:54.025Z,69.18
2023-08-02T05:10:56.237Z,69.38
2023-08-02T05:11:58.638Z,69.09
2023-08-02T05:13:01.128Z,69.21
2023-08-02T05:14:03.353Z,69.12
2023-08-02T05:15:06.544Z,69.30
2023-08-02T05:16:15.552Z,69.19
2023-08-02T05:17:17.971Z,69.36
2023-08-02T05:18:20.452Z,69.22
2023-08-02T05:19:22.828Z,69.10
2023-08-02T05:20:25.179Z,68.85
2023-08-02T05:21:27.452Z,68.97
2023-08-02T05:22:32.432Z,68.81
2023-08-02T05:23:34.701Z,68.88
2023-08-02T05:24:37.160Z,69.22
2023-08-02T05:25:39.623Z,69.05
2023-08-02T05:26:41.913Z,69.25
2023-08-02T05:27:44.515Z,69.16
2023-08-02T05:28:46.746Z,68.82
2023-08-02T05:29:49.165Z,68.96
2023-08-02T05:30:51.377Z,68.78
2023-08-02T05:31:53.639Z,68.59
2023-08-02T05:32:56.943Z,69.00
2023-08-02T05:33:59.301Z,68.80
2023-08-02T05:35:01.774Z,68.39
2023-08-02T05:36:04.211Z,68.64
2023-08-02T05:37:06.714Z,69.04
2023-08-02T05:38:09.204Z,68.94
2023-08-02T05:39:11.441Z,69.01
2023-08-02T05:40:16.413Z,68.60
2023-08-02T05:41:18.741Z,68.79
2023-08-02T05:42:21.325Z,68.24
2023-08-02T05:43:23.676Z,68.19
2023-08-02T05:44:25.907Z,68.29
2023-08-02T05:45:28.438Z,67.94
2023-08-02T05:46:31.247Z,67.72
2023-08-02T05:47:35.160Z,67.99
2023-08-02T05:48:37.642Z,67.79
2023-08-02T05:49:39.894Z,67.80
2023-08-02T05:50:42.517Z,67.23
2023-08-02T05:51:45.173Z,67.38
2023-08-02T05:52:48.950Z,67.36
2023-08-02T05:53:51.354Z,67.94
2023-08-02T05:54:53.619Z,67.73
2023-08-02T05:55:57.108Z,67.84
2023-08-02T05:56:59.390Z,67.96
2023-08-02T05:58:01.798Z,67.79
2023-08-02T05:59:04.207Z,66.66
2023-08-02T06:00:08.290Z,64.54
2023-08-02T06:01:10.573Z,63.40
2023-08-02T06:02:12.788Z,62.00
2023-08-02T06:03:15.676Z,61.31
2023-08-02T06:04:18.316Z,61.07
2023-08-02T06:05:20.556Z,60.20
2023-08-02T06:06:23.065Z,59.92
2023-08-02T06:07:25.480Z,59.43
2023-08-02T06:08:28.080Z,59.16
2023-08-02T06:09:30.914Z,58.50
2023-08-02T06:10:33.165Z,58.54
2023-08-02T06:11:35.616Z,58.81
2023-08-02T06:12:37.816Z,59.03
2023-08-02T06:13:40.976Z,58.77
2023-08-02T06:14:43.198Z,58.31
2023-08-02T06:15:45.468Z,58.01
2023-08-02T06:16:48.040Z,57.64
2023-08-02T06:17:50.281Z,57.62
2023-08-02T06:18:52.899Z,57.05
2023-08-02T06:19:55.226Z,56.62
2023-08-02T06:20:57.467Z,56.90
2023-08-02T06:21:59.975Z,57.37
2023-08-02T06:23:02.210Z,56.86
2023-08-02T06:24:05.022Z,56.87
2023-08-02T06:25:08.213Z,56.19
2023-08-02T06:26:10.804Z,54.94
2023-08-02T06:27:13.235Z,53.60
2023-08-02T06:28:15.468Z,52.71
2023-08-02T06:29:18.101Z,51.68
2023-08-02T06:30:20.520Z,50.75
2023-08-02T06:31:23.273Z,50.48
2023-08-02T06:32:25.701Z,49.44
2023-08-02T06:33:27.913Z,49.76
2023-08-02T06:34:30.501Z,49.48
2023-08-02T06:35:32.748Z,49.42
2023-08-02T06:36:35.627Z,49.21
2023-08-02T06:37:38.025Z,49.28
2023-08-02T06:38:40.618Z,48.51
2023-08-02T06:39:43.305Z,48.29
2023-08-02T06:40:45.596Z,48.42
2023-08-02T06:41:48.086Z,48.45
2023-08-02T06:42:50.620Z,48.93
2023-08-02T06:43:52.908Z,48.95
2023-08-02T06:44:55.757Z,48.76
2023-08-02T06:45:58.339Z,48.74
2023-08-02T06:47:00.829Z,47.99
2023-08-02T06:48:06.624Z,47.44
2023-08-02T06:49:09.006Z,46.65
2023-08-02T06:50:12.514Z,46.22
2023-08-02T06:51:14.782Z,45.75
2023-08-02T06:52:18.132Z,45.45
2023-08-02T06:53:20.730Z,45.26
2023-08-02T06:54:23.122Z,44.99
2023-08-02T06:55:27.062Z,44.63
2023-08-02T06:56:29.388Z,45.07
2023-08-02T06:57:32.559Z,44.89
2023-08-02T06:58:35.129Z,45.75
2023-08-02T06:59:37.592Z,46.13
2023-08-02T07:00:41.708Z,45.52
2023-08-02T07:01:44.120Z,45.82
2023-08-02T07:02:46.933Z,46.29
2023-08-02T07:03:50.669Z,46.74
2023-08-02T07:04:53.168Z,47.16
2023-08-02T07:05:55.440Z,46.57
2023-08-02T07:06:57.626Z,46.57
2023-08-02T07:08:01.329Z,47.02
2023-08-02T07:09:03.692Z,47.52
2023-08-02T07:10:06.426Z,48.07
2023-08-02T07:11:12.084Z,48.35
2023-08-02T07:12:16.578Z,48.52
2023-08-02T07:13:19.014Z,49.21
2023-08-02T07:14:21.405Z,49.66
2023-08-02T07:15:24.108Z,49.35
2023-08-02T07:16:26.446Z,49.39
2023-08-02T07:17:28.725Z,49.87
2023-08-02T07:18:31.513Z,49.36
2023-08-02T07:19:34.784Z,47.99
2023-08-02T07:20:37.386Z,46.94
2023-08-02T07:21:41.210Z,45.99
2023-08-02T07:22:45.529Z,44.88
2023-08-02T07:23:47.967Z,43.80
2023-08-02T07:24:50.227Z,43.75
2023-08-02T07:25:55.050Z,44.08
2023-08-02T07:26:57.598Z,44.17
2023-08-02T07:27:59.819Z,44.42
2023-08-02T07:29:02.250Z,44.68
2023-08-02T07:30:05.506Z,44.18
2023-08-02T07:31:14.340Z,44.08
2023-08-02T07:32:16.811Z,43.93
2023-08-02T07:33:19.049Z,44.75
2023-08-02T07:34:21.315Z,45.00
2023-08-02T07:35:23.530Z,45.45
2023-08-02T07:36:26.763Z,45.51
2023-08-02T07:37:29.100Z,44.85
2023-08-02T07:38:31.752Z,45.33
2023-08-02T07:39:34.616Z,45.76
2023-08-02T07:40:36.822Z,45.61
2023-08-02T07:41:39.632Z,46.23
2023-08-02T07:42:42.019Z,46.26
2023-08-02T07:43:44.505Z,46.29
2023-08-02T07:45:06.764Z,46.56
2023-08-02T07:46:22.800Z,45.93
2023-08-02T07:47:25.187Z,45.26
2023-08-02T07:48:27.509Z,45.23
2023-08-02T07:49:30.128Z,44.53
2023-08-02T07:50:32.839Z,44.17
2023-08-02T07:51:35.499Z,43.92
2023-08-02T07:52:37.769Z,43.65
2023-08-02T07:53:40.028Z,43.84
2023-08-02T07:54:54.762Z,43.48
2023-08-02T07:56:05.545Z,42.80
2023-08-02T07:57:08.221Z,41.94
2023-08-02T07:58:10.528Z,41.53
2023-08-02T07:59:13.963Z,41.51
2023-08-02T08:00:16.553Z,41.59
2023-08-02T08:01:18.851Z,41.05
2023-08-02T08:02:21.644Z,42.30
2023-08-02T08:03:24.044Z,42.53
2023-08-02T08:04:26.406Z,43.42
2023-08-02T08:05:33.268Z,44.07
2023-08-02T08:06:35.980Z,44.40
2023-08-02T08:07:38.287Z,43.93
2023-08-02T08:08:41.846Z,43.91
2023-08-02T08:09:44.110Z,43.12
2023-08-02T08:10:51.607Z,42.78
2023-08-02T08:11:54.027Z,41.88
2023-08-02T08:12:56.375Z,41.17
2023-08-02T08:13:58.624Z,40.45
2023-08-02T08:15:00.822Z,40.01
2023-08-02T08:16:03.901Z,39.10
2023-08-02T08:17:06.735Z,38.67
2023-08-02T08:18:09.116Z,39.98
2023-08-02T08:19:11.378Z,42.00
2023-08-02T08:20:13.769Z,42.88
2023-08-02T08:21:16.256Z,42.55
2023-08-02T08:22:19.765Z,42.47
2023-08-02T08:23:22.025Z,41.40
2023-08-02T08:24:24.378Z,40.70
2023-08-02T08:25:26.920Z,40.03
2023-08-02T08:26:29.149Z,39.32
2023-08-02T08:27:31.637Z,39.46
2023-08-02T08:28:33.899Z,39.65
2023-08-02T08:29:36.120Z,40.32
2023-08-02T08:30:38.356Z,40.48
2023-08-02T08:31:43.713Z,41.00
2023-08-02T08:32:46.771Z,41.64
2023-08-02T08:33:49.112Z,41.76
2023-08-02T08:34:51.309Z,41.37
2023-08-02T08:35:53.746Z,41.49
2023-08-02T08:36:56.181Z,41.63
2023-08-02T08:37:58.381Z,42.73
2023-08-02T08:39:00.911Z,43.20
2023-08-02T08:41:13.794Z,42.79
2023-08-02T08:42:16.282Z,42.81
2023-08-02T08:43:19.600Z,43.48
2023-08-02T08:44:21.890Z,43.52
2023-08-02T08:45:26.754Z,43.63
2023-08-02T08:46:32.933Z,43.53
2023-08-02T08:47:36.758Z,43.69
2023-08-02T08:48:40.009Z,43.97
2023-08-02T08:49:42.422Z,44.29
2023-08-02T08:50:47.657Z,44.71
2023-08-02T08:51:53.849Z,45.18
2023-08-02T08:52:59.487Z,45.63
2023-08-02T08:54:15.792Z,44.51
2023-08-02T08:55:20.088Z,43.84
2023-08-02T08:56:27.065Z,43.37
2023-08-02T08:57:32.567Z,42.55
2023-08-02T08:58:37.934Z,42.57
2023-08-02T08:59:40.483Z,41.99
2023-08-02T09:00:44.310Z,42.98
2023-08-02T09:01:47.330Z,43.00
2023-08-02T09:02:51.127Z,42.91
2023-08-02T09:03:53.420Z,43.27
2023-08-02T09:04:57.065Z,43.49
2023-08-02T09:06:04.493Z,43.40
2023-08-02T09:07:06.824Z,44.08
2023-08-02T09:08:10.025Z,43.90
2023-08-02T09:09:15.684Z,43.04
2023-08-02T09:10:19.457Z,42.63
2023-08-02T09:11:21.881Z,42.61
2023-08-02T09:12:28.668Z,42.89
2023-08-02T09:13:30.895Z,43.35
2023-08-02T09:14:33.138Z,43.79
2023-08-02T09:15:35.573Z,43.21
2023-08-02T09:16:40.852Z,43.35
2023-08-02T09:17:47.859Z,42.83
2023-08-02T09:18:50.559Z,42.32
2023-08-02T09:20:07.847Z,42.49
2023-08-02T09:21:14.387Z,42.24
2023-08-02T09:22:17.678Z,42.77
2023-08-02T09:23:20.078Z,43.50
2023-08-02T09:24:34.150Z,43.82
2023-08-02T09:25:36.420Z,44.01
2023-08-02T09:26:38.839Z,44.07
2023-08-02T09:27:41.101Z,43.90
2023-08-02T09:29:04.677Z,42.78
2023-08-02T09:30:07.497Z,42.30
2023-08-02T09:31:17.671Z,41.42
2023-08-02T09:32:22.267Z,41.07
2023-08-02T09:33:24.972Z,40.82
2023-08-02T09:34:43.071Z,41.03
2023-08-02T09:35:52.268Z,41.22
2023-08-02T09:36:54.707Z,41.72
2023-08-02T09:37:57.089Z,42.06
2023-08-02T09:39:17.094Z,42.31
2023-08-02T09:40:34.149Z,42.47
2023-08-02T09:42:41.851Z,42.62
2023-08-02T09:43:45.497Z,42.64
2023-08-02T09:44:58.761Z,43.23
2023-08-02T09:46:01.066Z,42.96
2023-08-02T09:47:11.064Z,43.02
2023-08-02T09:48:13.466Z,42.83
2023-08-02T09:49:20.421Z,42.89
2023-08-02T09:50:23.206Z,42.64
2023-08-02T09:51:42.592Z,42.53
2023-08-02T09:52:45.660Z,42.77
2023-08-02T09:53:57.754Z,42.29
2023-08-02T09:55:00.556Z,42.77
2023-08-02T09:56:03.482Z,42.79
2023-08-02T09:57:06.599Z,42.83
2023-08-02T09:58:09.273Z,43.09
2023-08-02T09:59:11.711Z,43.24
2023-08-02T10:00:14.969Z,42.86
2023-08-02T10:01:18.898Z,42.57
2023-08-02T10:02:25.479Z,42.16
2023-08-02T10:03:29.617Z,42.25
2023-08-02T10:04:32.618Z,41.81
2023-08-02T10:05:42.512Z,41.97
2023-08-02T10:06:48.942Z,42.01
2023-08-02T10:07:55.562Z,41.44
2023-08-02T10:09:06.640Z,41.59
2023-08-02T10:10:24.619Z,41.36
2023-08-02T10:11:28.645Z,40.42
2023-08-02T10:12:31.716Z,40.54
2023-08-02T10:13:38.873Z,40.75
2023-08-02T10:14:41.960Z,40.81
2023-08-02T10:15:44.710Z,41.56
2023-08-02T10:16:47.423Z,41.90
2023-08-02T10:17:50.371Z,41.73
2023-08-02T10:18:53.830Z,41.97
2023-08-02T10:19:57.050Z,41.77
2023-08-02T10:21:01.957Z,41.20
2023-08-02T10:22:05.571Z,40.87
2023-08-02T10:23:09.852Z,41.08
2023-08-02T10:24:14.399Z,41.03
2023-08-02T10:25:18.735Z,40.73
2023-08-02T10:26:22.127Z,41.06
2023-08-02T10:27:26.165Z,40.94
2023-08-02T10:28:29.446Z,41.05
2023-08-02T10:29:34.786Z,41.13
2023-08-02T10:30:37.773Z,41.28
2023-08-02T10:31:41.481Z,41.50
2023-08-02T10:32:43.850Z,41.72
2023-08-02T10:33:46.202Z,41.73
2023-08-02T10:34:53.282Z,42.11
2023-08-02T10:36:07.978Z,41.64
2023-08-02T10:37:10.284Z,41.38
2023-08-02T10:38:16.364Z,41.95
2023-08-02T10:39:18.620Z,41.63
2023-08-02T10:40:22.787Z,41.46
2023-08-02T10:41:28.255Z,41.00
2023-08-02T10:42:31.166Z,41.20
2023-08-02T10:43:33.777Z,41.00
2023-08-02T10:44:36.005Z,41.13
2023-08-02T10:45:38.301Z,41.40
2023-08-02T10:46:41.374Z,41.78
2023-08-02T10:47:44.277Z,41.74
2023-08-02T10:48:46.875Z,41.22
2023-08-02T10:49:49.178Z,41.58
2023-08-02T10:50:51.492Z,41.92
2023-08-02T10:51:57.525Z,43.38
2023-08-02T10:53:08.825Z,42.57
2023-08-02T10:54:24.370Z,42.00
2023-08-02T10:55:26.855Z,42.18
2023-08-02T10:56:29.303Z,41.99
2023-08-02T10:57:31.714Z,41.89
2023-08-02T10:58:51.876Z,40.96
2023-08-02T10:59:54.504Z,41.30
2023-08-02T11:01:12.084Z,41.52
2023-08-02T11:02:15.081Z,41.37
2023-08-02T11:03:29.736Z,41.38
2023-08-02T11:04:32.164Z,41.42
2023-08-02T11:05:41.417Z,41.08
2023-08-02T11:06:44.113Z,42.00
2023-08-02T11:08:01.998Z,42.04
2023-08-02T11:09:05.072Z,41.43
2023-08-02T11:10:07.943Z,40.75
2023-08-02T11:11:10.163Z,40.93
2023-08-02T11:12:33.487Z,40.80
2023-08-02T11:13:41.173Z,40.49
2023-08-02T11:14:46.201Z,39.97
2023-08-02T11:16:15.539Z,39.71
2023-08-02T11:18:35.511Z,39.89
2023-08-02T11:21:17.098Z,40.29
2023-08-02T11:22:20.290Z,40.55
2023-08-02T11:23:29.455Z,40.42
2023-08-02T11:24:50.133Z,40.06
2023-08-02T11:26:15.809Z,39.59
2023-08-02T11:27:22.086Z,39.98
2023-08-02T11:28:25.740Z,40.37
2023-08-02T11:29:28.157Z,40.09
2023-08-02T11:30:30.886Z,40.26
2023-08-02T11:31:33.538Z,39.76
2023-08-02T11:32:44.336Z,40.22
2023-08-02T11:33:46.924Z,39.93
2023-08-02T11:34:51.971Z,40.14
2023-08-02T11:35:58.852Z,40.39
2023-08-02T11:37:09.313Z,40.55
2023-08-02T11:38:14.664Z,40.98
2023-08-02T11:39:17.985Z,41.37
2023-08-02T11:40:26.686Z,41.25
2023-08-02T11:41:29.291Z,41.12
2023-08-02T11:42:34.200Z,40.66
2023-08-02T11:43:37.869Z,40.75
2023-08-02T11:44:49.730Z,41.75
2023-08-02T11:46:00.795Z,41.70
2023-08-02T11:47:03.355Z,42.04
2023-08-02T11:48:10.834Z,42.58
2023-08-02T11:49:13.952Z,42.63
2023-08-02T11:50:24.713Z,42.03
2023-08-02T11:51:26.829Z,42.25
2023-08-02T11:52:31.315Z,42.64
2023-08-02T11:53:33.961Z,42.66
2023-08-02T11:54:36.290Z,42.65
2023-08-02T11:55:40.065Z,42.77
2023-08-02T11:56:43.517Z,43.50
2023-08-02T11:57:47.545Z,43.44
2023-08-02T11:58:50.924Z,43.40
2023-08-02T11:59:57.764Z,43.58
2023-08-02T12:01:00.589Z,43.77
2023-08-02T12:02:02.844Z,43.61
2023-08-02T12:03:10.207Z,43.39
2023-08-02T12:04:12.652Z,43.00
2023-08-02T12:05:22.444Z,43.23
2023-08-02T12:06:29.646Z,42.90
2023-08-02T12:07:33.243Z,42.92
2023-08-02T12:08:35.474Z,42.87
2023-08-02T12:09:43.611Z,42.93
2023-08-02T12:10:48.633Z,42.93
2023-08-02T12:11:54.088Z,42.87
2023-08-02T12:12:56.504Z,43.11
2023-08-02T12:14:02.700Z,43.09
2023-08-02T12:15:12.478Z,43.32
2023-08-02T12:16:17.332Z,43.72
2023-08-02T12:17:21.539Z,43.41
2023-08-02T12:18:23.919Z,43.34
2023-08-02T12:19:40.045Z,43.50
2023-08-02T12:20:42.768Z,43.43
2023-08-02T12:21:46.881Z,43.20
2023-08-02T12:22:50.645Z,42.81
2023-08-02T12:23:53.946Z,43.04
2023-08-02T12:25:07.207Z,43.22
2023-08-02T12:26:09.943Z,44.03
2023-08-02T12:27:30.809Z,44.27
2023-08-02T12:28:48.874Z,44.28
2023-08-02T12:30:08.507Z,44.49
2023-08-02T12:31:11.977Z,45.74
2023-08-02T12:32:28.454Z,45.90
2023-08-02T12:33:32.796Z,45.34
2023-08-02T12:34:35.151Z,45.73
2023-08-02T12:35:42.896Z,45.82
2023-08-02T12:36:48.421Z,45.29
2023-08-02T12:37:52.239Z,45.31
2023-08-02T12:38:56.341Z,44.69
2023-08-02T12:39:59.261Z,44.64
2023-08-02T12:41:04.206Z,44.53
2023-08-02T12:42:08.184Z,43.97
2023-08-02T12:43:10.439Z,44.05
2023-08-02T12:44:12.883Z,43.46
2023-08-02T12:45:18.022Z,43.58
2023-08-02T12:46:21.404Z,43.61
2023-08-02T12:47:23.802Z,43.31
2023-08-02T12:48:26.085Z,43.52
2023-08-02T12:49:28.549Z,43.64
2023-08-02T12:50:30.848Z,43.53
2023-08-02T12:51:33.545Z,43.97
2023-08-02T12:52:35.806Z,43.90
2023-08-02T12:53:38.068Z,43.94
2023-08-02T12:54:40.503Z,43.81
2023-08-02T12:55:43.409Z,44.20
2023-08-02T12:56:45.952Z,44.31
2023-08-02T12:57:48.233Z,44.01
2023-08-02T12:58:50.481Z,43.91
2023-08-02T12:59:52.946Z,43.67
2023-08-02T13:00:55.219Z,43.81
2023-08-02T13:01:59.446Z,43.61
2023-08-02T13:03:01.938Z,43.49
2023-08-02T13:04:04.423Z,43.99
2023-08-02T13:05:07.239Z,43.98
2023-08-02T13:06:09.542Z,44.17
2023-08-02T13:07:12.222Z,44.52
2023-08-02T13:08:14.648Z,44.64
2023-08-02T13:09:16.854Z,44.84
2023-08-02T13:10:19.284Z,44.83
2023-08-02T13:11:21.585Z,44.96
2023-08-02T13:12:28.153Z,44.87
2023-08-02T13:13:41.351Z,44.92
2023-08-02T13:14:43.578Z,44.96
2023-08-02T13:15:46.668Z,44.83
2023-08-02T13:16:49.154Z,44.72
2023-08-02T13:17:51.558Z,44.84
2023-08-02T13:18:53.879Z,45.22
2023-08-02T13:19:56.162Z,45.29
2023-08-02T13:20:58.826Z,45.26
2023-08-02T13:22:01.243Z,45.26
2023-08-02T13:23:03.603Z,45.38
2023-08-02T13:24:07.865Z,44.70
2023-08-02T13:25:11.765Z,44.79
2023-08-02T13:26:14.755Z,45.21
2023-08-02T13:27:17.713Z,45.20
2023-08-02T13:28:22.152Z,45.34
2023-08-02T13:29:24.397Z,45.23
2023-08-02T13:30:27.540Z,44.96
2023-08-02T13:31:30.842Z,44.52
2023-08-02T13:32:35.851Z,44.39
2023-08-02T13:33:42.599Z,44.31
2023-08-02T13:34:44.824Z,44.44
2023-08-02T13:35:47.284Z,44.27
2023-08-02T13:36:50.907Z,44.62
2023-08-02T13:37:53.202Z,44.49
2023-08-02T13:38:55.426Z,44.94
2023-08-02T13:39:57.682Z,44.35
2023-08-02T13:41:00.970Z,43.69
2023-08-02T13:42:03.647Z,43.55
2023-08-02T13:43:05.870Z,43.18
2023-08-02T13:44:08.137Z,42.70
2023-08-02T13:45:10.901Z,42.63
2023-08-02T13:46:13.357Z,42.68
2023-08-02T13:47:15.835Z,42.45
2023-08-02T13:48:18.090Z,42.85